Portada
METAR-TAF:

METAR-TAF

Aeroports :

Flores, Açores, Portugal

latitud: 39-27N, longitud: 031-08W, altitud: 28 m

Observació

L'informe es va fer fa 6 hores i 36 minuts, a les 18:00 UTC
Vent 5 kt del Nord/Nord-Oest, variant entre Oest i Nord/Nord-Est
Temperatura 28°C
Humitat 66%
Pressió 1020 hPa
Visibilitat 10 km o més
Escasses núvols a una alçada de 1800 ft

METAR: LPFL 141800Z 34005KT 270V030 9999 FEW018 28/21 Q1020

Hora: 00:36 (00:36 UTC)


TAF: manca

Observacions i pronòstics meteorològics de més de 4000 aeroports (METAR i TAF).

Les estacions disponibles són els punts grocs i vermells al mapa.

Posi el ratolí al punt desitjat per veure el nom de l'estació.

Feu clic per veure les observacions i els pronòstics meteorològics.

Per canviar el mapa: feu clic els botons verds amb una creu de color negre per apropar; al botó verd amb un guió per allunyar la imatge; o en les fletxes verdes per a mapes adjacents.


METAR-TAF: